Trampas, New Mexico
Current Conditions -  °F | °C
As of 9:55 PM on Saturday 25 Oct 2014 (Local Time) from KSKX Reporting Station
Clear Clear  
Wind Chill: 46°   Ceiling: Unl
Heat Index: 48°   Visibility: 10mi
Dew Point: 19°   Wind: 5mph
Humidity: 32%   Direction: 100°E
Pressure: 30.27"   Gusts: NA
Location:  36.13°N, 105.76°W
Report Text: KSKX 260355Z AUTO 10004KT 10SM CLR 09/M07 A3027 RMK AO1
Loading
Personal Weather Stations






























Interactive Weather Map
Tropical Storm Tracking
New forecast layout! Learn more

10-Day Weather Forecast

Advertisements
Track Severe Weather on mobile